Pular para o conteúdo principal

EMBRAER PHENOM 300 SAI DA PISTA NO TEXAS



Um jato executivo Embraer EMB-505 Phenom 300, do operador NETJETS,  sofreu danos não declarados em um acidente de saída de pista no Aeroporto de Conroe-Montgomery County, Texas, na sexta-feira (19).
 
O avião de prefixo N522QS, série 50500165, realizava voo do Aeroporto Internacional de Nashville, TN (BNA), com uma tripulação de dois pilotos. 

O Phenom aterrou na pista 1 no meio de chuva forte. Aeronave aparentemente não conseguiu parar na pista e caiu em uma vala, cerca de 390 metros a norte da cabeceira da pista 19.
 
 A Pista 1 tem cerca de 5.000 pés (1.524 m) com piso de concreto.


METAR Weather report:
13:32 UTC / 08:32 local time:
KCXO 191332Z 00000KT 2SM RA BR SCT007 BKN024 OVC080 23/22 A2993 RMK AO2 P0017 T02280222

13:41 UTC / 08:41 local time:
KCXO 191341Z 00000KT 2SM +RA BR FEW005 BKN080 OVC100 23/22 A2993 RMK AO2 P0021 T02280222
Winds: calm; Visibility: 2 miles; heavy rain, mist; few clouds at 500 feet AGL; broken clouds at 8000 feet AGL; overcast cloud deck at 10000 feet AGL; Temperature: 23°C; Dewpoint: 22°C; pressure 1013.6 mb

13:53 UTC / 08:53 local time:
KCXO 191353Z 00000KT 2 1/2SM RA BR FEW004 BKN055 OVC090 23/22 A2994 RMK AO2 SLP134 P0025 T02280222
Winds: calm; Visibility: 2,5 miles; rain, mist; few clouds at 400 feet AGL; broken clouds at 5500 feet AGL; overcast cloud deck at 9000 feet AGL; Temperature: 23°C; Dewpoint: 22°C; pressure 1014 mb

13:59 UTC / 08:59 local time:
KCXO 191359Z 00000KT 3SM RA BR SCT004 BKN021 OVC090 23/22 A2994 RMK AO2 P0002 T02280222


fonte/ASN/foto/HoustonWeather

Comentários

Postagens mais visitadas deste blog

AVIÃO COM O SENADOR AÉCIO NEVES FAZ POUSO DE EMERGÊNCIA NO AEROPORTO DE GUARULHOS

Imagem com a aeronave em que estaria Aécio, fora da pista, e que circula na internet
O avião em que estava o senador Aécio Neves (PSDB) precisou fazer um pouso de emergência no aeroporto internacional de Guarulhos na noite de quinta-feira (9), informou sua assessoria de imprensa.
Já era noite quando a aeronave, um táxi aéreo fretado pelo PSDB, saiu de Brasília com destino a São Paulo. Os pilotos, percebendo que um pedaço do pneu havia ficado na pista, teriam solicitado autorização para pousar em Cumbica, ao invés de Congonhas, por ter uma pista maior. Ao aterrissar, no entanto, o trem de pouso teria se quebrado, vindo o avião a sair da pista.
Apenas Aécio e a tripulação estavam a bordo. Segundo a assessoria, nem ele nem os pilotos se feriram.
O senador veio para São Paulo porque tem reunião agendada com o ex-presidente Fernando Henrique Cardoso na manhã desta sexta (10). Apesar do incidente, o encontro foi mantido.
Fernanda Carvalho/O Tempo/Estadão Conteúdo
fonte/foto/UOL

Da…

VÍDEOS DO ACIDENTE COM BOEING 737 DA PERUVIAN AIRLINES EM JAUJA